HFN weather

Hornafjörður Airport
Höfn, Southern Region, Iceland

Public forecast

Using degrees Celsius for public forecast. Weather courtesy of forecast.io.

METAR (pilot weather report)

Report is more than 6 hours old.

Retrieved 2019/04/22 19:11 UTC (1 day ago):

BIHN 221911Z 07009KT 9999 VCSH FEW014 BKN031 OVC037 05/02 Q1005

TAF (pilot weather forecast)

Closest forecast is Egilsstaðir Airport, 62.9 nm (116.6 km) NNE. Retrieved 2019/04/23 21:00 UTC (2 hours ago):

TAF BIEG 231959Z 2321/2421 36010KT 9999 FEW010 SCT020 BKN040 TX14/2415Z TN03/2406Z BECMG 2321/2400 16005KT BECMG 2411/2414 18015KT FEW035 SCT050